sensor_id;sensor_type;location;lat;lon;timestamp;P1;durP1;ratioP1;P2;durP2;ratioP2
17858;SDS011;35426;30.698;104.050;2023-02-15T00:01:50;50.50;;;30.93;;
17858;SDS011;35426;30.698;104.050;2023-02-15T00:04:28;52.97;;;31.87;;
17858;SDS011;35426;30.698;104.050;2023-02-15T00:07:19;51.73;;;31.53;;
17858;SDS011;35426;30.698;104.050;2023-02-15T00:09:55;49.90;;;32.07;;
17858;SDS011;35426;30.698;104.050;2023-02-15T00:12:35;53.70;;;31.23;;
17858;SDS011;35426;30.698;104.050;2023-02-15T00:15:11;52.83;;;32.10;;
17858;SDS011;35426;30.698;104.050;2023-02-15T00:17:47;52.17;;;31.93;;
17858;SDS011;35426;30.698;104.050;2023-02-15T00:20:24;54.57;;;32.37;;
17858;SDS011;35426;30.698;104.050;2023-02-15T00:23:03;52.47;;;31.93;;
17858;SDS011;35426;30.698;104.050;2023-02-15T00:25:39;55.30;;;33.17;;
17858;SDS011;35426;30.698;104.050;2023-02-15T00:28:17;53.43;;;32.23;;
17858;SDS011;35426;30.698;104.050;2023-02-15T00:30:54;50.67;;;31.70;;
17858;SDS011;35426;30.698;104.050;2023-02-15T00:33:37;51.67;;;32.17;;
17858;SDS011;35426;30.698;104.050;2023-02-15T00:36:15;55.43;;;33.07;;
17858;SDS011;35426;30.698;104.050;2023-02-15T00:38:54;51.37;;;32.70;;
17858;SDS011;35426;30.698;104.050;2023-02-15T00:41:30;54.27;;;31.37;;
17858;SDS011;35426;30.698;104.050;2023-02-15T00:44:07;55.27;;;32.20;;
17858;SDS011;35426;30.698;104.050;2023-02-15T00:46:44;48.60;;;30.90;;
17858;SDS011;35426;30.698;104.050;2023-02-15T00:49:24;49.53;;;31.23;;
17858;SDS011;35426;30.698;104.050;2023-02-15T00:52:00;52.63;;;30.23;;
17858;SDS011;35426;30.698;104.050;2023-02-15T00:54:41;51.07;;;30.87;;
17858;SDS011;35426;30.698;104.050;2023-02-15T00:57:18;53.53;;;31.90;;
17858;SDS011;35426;30.698;104.050;2023-02-15T00:59:55;51.40;;;32.40;;
17858;SDS011;35426;30.698;104.050;2023-02-15T01:02:32;55.80;;;33.07;;
17858;SDS011;35426;30.698;104.050;2023-02-15T01:05:08;56.23;;;32.43;;
17858;SDS011;35426;30.698;104.050;2023-02-15T01:07:44;54.17;;;31.73;;
17858;SDS011;35426;30.698;104.050;2023-02-15T01:10:24;55.43;;;32.80;;
17858;SDS011;35426;30.698;104.050;2023-02-15T01:13:01;55.03;;;32.73;;
17858;SDS011;35426;30.698;104.050;2023-02-15T01:15:38;58.43;;;33.97;;
17858;SDS011;35426;30.698;104.050;2023-02-15T01:18:15;56.63;;;35.87;;
17858;SDS011;35426;30.698;104.050;2023-02-15T01:20:52;58.50;;;34.53;;
17858;SDS011;35426;30.698;104.050;2023-02-15T01:23:29;59.73;;;34.50;;
17858;SDS011;35426;30.698;104.050;2023-02-15T01:26:10;61.80;;;36.20;;
17858;SDS011;35426;30.698;104.050;2023-02-15T01:28:48;62.00;;;35.87;;
17858;SDS011;35426;30.698;104.050;2023-02-15T01:31:24;66.07;;;35.63;;
17858;SDS011;35426;30.698;104.050;2023-02-15T01:34:00;59.83;;;35.07;;
17858;SDS011;35426;30.698;104.050;2023-02-15T01:36:38;62.97;;;35.90;;
17858;SDS011;35426;30.698;104.050;2023-02-15T01:39:15;66.40;;;37.47;;
17858;SDS011;35426;30.698;104.050;2023-02-15T01:41:55;67.90;;;39.17;;
17858;SDS011;35426;30.698;104.050;2023-02-15T01:44:50;64.83;;;39.50;;
17858;SDS011;35426;30.698;104.050;2023-02-15T01:47:32;65.93;;;38.43;;
17858;SDS011;35426;30.698;104.050;2023-02-15T01:50:13;63.03;;;38.83;;
17858;SDS011;35426;30.698;104.050;2023-02-15T01:52:55;69.70;;;39.87;;
17858;SDS011;35426;30.698;104.050;2023-02-15T01:55:36;70.17;;;40.30;;
17858;SDS011;35426;30.698;104.050;2023-02-15T01:58:21;66.23;;;39.43;;
17858;SDS011;35426;30.698;104.050;2023-02-15T02:01:01;76.87;;;41.70;;
17858;SDS011;35426;30.698;104.050;2023-02-15T02:03:41;67.07;;;39.97;;
17858;SDS011;35426;30.698;104.050;2023-02-15T02:06:24;69.80;;;42.63;;
17858;SDS011;35426;30.698;104.050;2023-02-15T02:09:06;70.10;;;41.17;;
17858;SDS011;35426;30.698;104.050;2023-02-15T02:11:45;71.73;;;43.30;;
17858;SDS011;35426;30.698;104.050;2023-02-15T02:14:27;73.80;;;43.60;;
17858;SDS011;35426;30.698;104.050;2023-02-15T02:17:05;79.77;;;45.60;;
17858;SDS011;35426;30.698;104.050;2023-02-15T02:19:51;78.83;;;46.13;;
17858;SDS011;35426;30.698;104.050;2023-02-15T02:22:56;74.60;;;44.73;;
17858;SDS011;35426;30.698;104.050;2023-02-15T02:35:48;81.80;;;46.73;;
17858;SDS011;35426;30.698;104.050;2023-02-15T02:38:32;88.13;;;48.10;;
17858;SDS011;35426;30.698;104.050;2023-02-15T02:41:24;83.37;;;48.23;;
17858;SDS011;35426;30.698;104.050;2023-02-15T02:44:07;82.43;;;49.30;;
17858;SDS011;35426;30.698;104.050;2023-02-15T02:46:51;89.73;;;50.27;;
17858;SDS011;35426;30.698;104.050;2023-02-15T02:49:36;83.17;;;48.73;;
17858;SDS011;35426;30.698;104.050;2023-02-15T02:55:15;84.30;;;48.00;;
17858;SDS011;35426;30.698;104.050;2023-02-15T02:57:57;85.17;;;49.70;;
17858;SDS011;35426;30.698;104.050;2023-02-15T03:00:36;77.80;;;48.90;;
17858;SDS011;35426;30.698;104.050;2023-02-15T03:03:21;89.20;;;50.07;;
17858;SDS011;35426;30.698;104.050;2023-02-15T03:06:02;82.53;;;48.63;;
17858;SDS011;35426;30.698;104.050;2023-02-15T03:08:47;85.00;;;48.40;;
17858;SDS011;35426;30.698;104.050;2023-02-15T03:11:27;89.63;;;51.17;;
17858;SDS011;35426;30.698;104.050;2023-02-15T03:14:07;91.07;;;52.10;;
17858;SDS011;35426;30.698;104.050;2023-02-15T03:16:46;88.50;;;52.07;;
17858;SDS011;35426;30.698;104.050;2023-02-15T03:19:26;89.97;;;52.07;;
17858;SDS011;35426;30.698;104.050;2023-02-15T03:22:10;90.47;;;50.93;;
17858;SDS011;35426;30.698;104.050;2023-02-15T03:25:02;89.40;;;51.50;;
17858;SDS011;35426;30.698;104.050;2023-02-15T03:27:43;101.60;;;54.33;;
17858;SDS011;35426;30.698;104.050;2023-02-15T03:30:22;93.97;;;53.70;;
17858;SDS011;35426;30.698;104.050;2023-02-15T03:33:02;98.97;;;53.37;;
17858;SDS011;35426;30.698;104.050;2023-02-15T03:35:45;96.10;;;52.63;;
17858;SDS011;35426;30.698;104.050;2023-02-15T03:38:29;97.17;;;50.90;;
17858;SDS011;35426;30.698;104.050;2023-02-15T03:41:20;90.93;;;50.93;;
17858;SDS011;35426;30.698;104.050;2023-02-15T03:44:02;97.87;;;52.10;;
17858;SDS011;35426;30.698;104.050;2023-02-15T03:46:46;94.07;;;50.63;;
17858;SDS011;35426;30.698;104.050;2023-02-15T03:49:27;90.93;;;50.47;;
17858;SDS011;35426;30.698;104.050;2023-02-15T03:52:08;84.47;;;47.40;;
17858;SDS011;35426;30.698;104.050;2023-02-15T03:54:49;84.83;;;49.00;;
17858;SDS011;35426;30.698;104.050;2023-02-15T03:57:28;95.27;;;50.70;;
17858;SDS011;35426;30.698;104.050;2023-02-15T04:00:22;93.63;;;50.17;;
17858;SDS011;35426;30.698;104.050;2023-02-15T04:03:22;95.10;;;52.00;;
17858;SDS011;35426;30.698;104.050;2023-02-15T04:06:09;91.37;;;49.73;;
17858;SDS011;35426;30.698;104.050;2023-02-15T04:08:45;92.10;;;49.43;;
17858;SDS011;35426;30.698;104.050;2023-02-15T04:11:54;82.80;;;47.40;;
17858;SDS011;35426;30.698;104.050;2023-02-15T04:14:36;83.83;;;47.83;;
17858;SDS011;35426;30.698;104.050;2023-02-15T04:17:27;86.40;;;47.47;;
17858;SDS011;35426;30.698;104.050;2023-02-15T04:20:04;81.67;;;46.20;;
17858;SDS011;35426;30.698;104.050;2023-02-15T04:23:03;74.90;;;45.43;;
17858;SDS011;35426;30.698;104.050;2023-02-15T04:25:57;80.00;;;46.50;;
17858;SDS011;35426;30.698;104.050;2023-02-15T04:28:36;94.67;;;47.47;;
17858;SDS011;35426;30.698;104.050;2023-02-15T04:31:24;84.07;;;46.17;;
17858;SDS011;35426;30.698;104.050;2023-02-15T04:34:02;84.27;;;48.53;;
17858;SDS011;35426;30.698;104.050;2023-02-15T04:36:45;87.07;;;49.17;;
17858;SDS011;35426;30.698;104.050;2023-02-15T04:39:26;91.17;;;48.53;;
17858;SDS011;35426;30.698;104.050;2023-02-15T04:42:04;86.43;;;49.67;;
17858;SDS011;35426;30.698;104.050;2023-02-15T04:44:41;99.00;;;52.90;;
17858;SDS011;35426;30.698;104.050;2023-02-15T04:47:35;94.57;;;51.07;;
17858;SDS011;35426;30.698;104.050;2023-02-15T04:50:14;86.43;;;50.27;;
17858;SDS011;35426;30.698;104.050;2023-02-15T04:52:55;94.60;;;50.23;;
17858;SDS011;35426;30.698;104.050;2023-02-15T04:55:34;97.10;;;51.13;;
17858;SDS011;35426;30.698;104.050;2023-02-15T04:58:11;90.03;;;48.93;;
17858;SDS011;35426;30.698;104.050;2023-02-15T05:00:48;88.33;;;48.70;;
17858;SDS011;35426;30.698;104.050;2023-02-15T05:03:33;86.90;;;47.63;;
17858;SDS011;35426;30.698;104.050;2023-02-15T05:06:14;85.27;;;46.17;;
17858;SDS011;35426;30.698;104.050;2023-02-15T05:08:51;85.70;;;45.73;;
17858;SDS011;35426;30.698;104.050;2023-02-15T05:11:30;78.50;;;44.93;;
17858;SDS011;35426;30.698;104.050;2023-02-15T05:14:08;83.03;;;45.10;;
17858;SDS011;35426;30.698;104.050;2023-02-15T05:16:47;78.10;;;43.87;;
17858;SDS011;35426;30.698;104.050;2023-02-15T05:19:28;77.07;;;43.27;;
17858;SDS011;35426;30.698;104.050;2023-02-15T05:22:05;74.27;;;43.77;;
17858;SDS011;35426;30.698;104.050;2023-02-15T05:24:45;75.13;;;42.23;;
17858;SDS011;35426;30.698;104.050;2023-02-15T05:27:36;70.93;;;42.03;;
17858;SDS011;35426;30.698;104.050;2023-02-15T05:30:28;70.47;;;40.43;;
17858;SDS011;35426;30.698;104.050;2023-02-15T05:33:07;71.17;;;41.03;;
17858;SDS011;35426;30.698;104.050;2023-02-15T05:35:50;73.53;;;40.23;;
17858;SDS011;35426;30.698;104.050;2023-02-15T05:38:30;69.20;;;38.77;;
17858;SDS011;35426;30.698;104.050;2023-02-15T05:41:10;65.97;;;40.63;;
17858;SDS011;35426;30.698;104.050;2023-02-15T05:43:47;64.40;;;38.07;;
17858;SDS011;35426;30.698;104.050;2023-02-15T05:46:29;72.57;;;40.53;;
17858;SDS011;35426;30.698;104.050;2023-02-15T05:49:06;73.00;;;39.53;;
17858;SDS011;35426;30.698;104.050;2023-02-15T05:51:47;66.63;;;40.03;;
17858;SDS011;35426;30.698;104.050;2023-02-15T05:54:25;63.80;;;39.00;;
17858;SDS011;35426;30.698;104.050;2023-02-15T05:57:09;64.50;;;38.73;;
17858;SDS011;35426;30.698;104.050;2023-02-15T05:59:58;68.17;;;39.33;;
17858;SDS011;35426;30.698;104.050;2023-02-15T06:02:41;63.47;;;39.47;;
17858;SDS011;35426;30.698;104.050;2023-02-15T06:05:20;67.97;;;39.60;;
17858;SDS011;35426;30.698;104.050;2023-02-15T06:08:00;66.03;;;38.23;;
17858;SDS011;35426;30.698;104.050;2023-02-15T06:10:45;68.67;;;38.67;;
17858;SDS011;35426;30.698;104.050;2023-02-15T06:13:24;69.27;;;38.93;;
17858;SDS011;35426;30.698;104.050;2023-02-15T06:16:05;66.20;;;38.57;;
17858;SDS011;35426;30.698;104.050;2023-02-15T06:18:43;67.00;;;38.93;;
17858;SDS011;35426;30.698;104.050;2023-02-15T06:21:21;69.03;;;38.50;;
17858;SDS011;35426;30.698;104.050;2023-02-15T06:24:00;73.27;;;40.20;;
17858;SDS011;35426;30.698;104.050;2023-02-15T06:26:39;60.00;;;37.97;;
17858;SDS011;35426;30.698;104.050;2023-02-15T06:29:17;63.77;;;37.90;;
17858;SDS011;35426;30.698;104.050;2023-02-15T06:31:54;60.13;;;37.07;;
17858;SDS011;35426;30.698;104.050;2023-02-15T06:34:39;65.47;;;38.50;;
17858;SDS011;35426;30.698;104.050;2023-02-15T06:37:16;67.20;;;37.70;;
17858;SDS011;35426;30.698;104.050;2023-02-15T06:39:56;63.87;;;38.43;;
17858;SDS011;35426;30.698;104.050;2023-02-15T06:42:34;71.23;;;38.60;;
17858;SDS011;35426;30.698;104.050;2023-02-15T06:45:11;63.80;;;38.40;;
17858;SDS011;35426;30.698;104.050;2023-02-15T06:47:47;66.70;;;38.30;;
17858;SDS011;35426;30.698;104.050;2023-02-15T06:50:24;64.40;;;38.60;;
17858;SDS011;35426;30.698;104.050;2023-02-15T06:53:02;69.10;;;38.57;;
17858;SDS011;35426;30.698;104.050;2023-02-15T06:55:41;64.90;;;38.57;;
17858;SDS011;35426;30.698;104.050;2023-02-15T06:58:18;63.77;;;38.67;;
17858;SDS011;35426;30.698;104.050;2023-02-15T07:00:58;64.47;;;38.97;;
17858;SDS011;35426;30.698;104.050;2023-02-15T07:03:36;67.20;;;38.73;;
17858;SDS011;35426;30.698;104.050;2023-02-15T07:06:15;67.40;;;39.93;;
17858;SDS011;35426;30.698;104.050;2023-02-15T07:08:51;63.17;;;38.70;;
17858;SDS011;35426;30.698;104.050;2023-02-15T07:15:00;72.73;;;40.93;;
17858;SDS011;35426;30.698;104.050;2023-02-15T07:17:39;66.63;;;40.13;;
17858;SDS011;35426;30.698;104.050;2023-02-15T07:20:17;65.77;;;39.97;;
17858;SDS011;35426;30.698;104.050;2023-02-15T07:22:54;72.40;;;39.87;;
17858;SDS011;35426;30.698;104.050;2023-02-15T07:25:32;65.50;;;39.30;;
17858;SDS011;35426;30.698;104.050;2023-02-15T07:28:09;67.60;;;39.70;;
17858;SDS011;35426;30.698;104.050;2023-02-15T07:30:49;60.87;;;37.77;;
17858;SDS011;35426;30.698;104.050;2023-02-15T07:33:28;66.40;;;38.10;;
17858;SDS011;35426;30.698;104.050;2023-02-15T07:36:09;59.60;;;36.83;;
17858;SDS011;35426;30.698;104.050;2023-02-15T07:38:49;60.83;;;37.80;;
17858;SDS011;35426;30.698;104.050;2023-02-15T07:41:26;64.67;;;38.77;;
17858;SDS011;35426;30.698;104.050;2023-02-15T07:44:11;62.43;;;37.43;;
17858;SDS011;35426;30.698;104.050;2023-02-15T07:46:50;66.33;;;37.37;;
17858;SDS011;35426;30.698;104.050;2023-02-15T07:49:27;57.37;;;35.60;;
17858;SDS011;35426;30.698;104.050;2023-02-15T07:52:06;60.57;;;35.73;;
17858;SDS011;35426;30.698;104.050;2023-02-15T07:54:45;62.00;;;36.37;;
17858;SDS011;35426;30.698;104.050;2023-02-15T07:57:24;63.33;;;36.23;;
17858;SDS011;35426;30.698;104.050;2023-02-15T08:00:00;62.33;;;36.07;;
17858;SDS011;35426;30.698;104.050;2023-02-15T08:02:41;59.73;;;36.13;;
17858;SDS011;35426;30.698;104.050;2023-02-15T08:05:41;59.83;;;35.47;;
17858;SDS011;35426;30.698;104.050;2023-02-15T08:08:20;59.27;;;34.87;;
17858;SDS011;35426;30.698;104.050;2023-02-15T08:11:07;64.43;;;35.60;;
17858;SDS011;35426;30.698;104.050;2023-02-15T08:14:07;63.80;;;35.83;;
17858;SDS011;35426;30.698;104.050;2023-02-15T08:16:48;58.77;;;35.17;;
17858;SDS011;35426;30.698;104.050;2023-02-15T08:19:30;64.00;;;35.97;;
17858;SDS011;35426;30.698;104.050;2023-02-15T08:22:11;60.30;;;36.20;;
17858;SDS011;35426;30.698;104.050;2023-02-15T08:24:48;62.27;;;34.57;;
17858;SDS011;35426;30.698;104.050;2023-02-15T08:27:29;57.27;;;34.37;;
17858;SDS011;35426;30.698;104.050;2023-02-15T08:30:13;57.37;;;33.97;;
17858;SDS011;35426;30.698;104.050;2023-02-15T08:32:51;61.17;;;35.30;;
17858;SDS011;35426;30.698;104.050;2023-02-15T08:35:31;57.77;;;34.97;;
17858;SDS011;35426;30.698;104.050;2023-02-15T08:38:08;62.43;;;35.80;;
17858;SDS011;35426;30.698;104.050;2023-02-15T08:40:46;59.23;;;34.70;;
17858;SDS011;35426;30.698;104.050;2023-02-15T08:43:25;62.43;;;35.83;;
17858;SDS011;35426;30.698;104.050;2023-02-15T08:46:07;60.33;;;35.33;;
17858;SDS011;35426;30.698;104.050;2023-02-15T08:48:44;54.97;;;33.87;;
17858;SDS011;35426;30.698;104.050;2023-02-15T08:51:25;59.97;;;34.30;;
17858;SDS011;35426;30.698;104.050;2023-02-15T08:54:06;60.80;;;34.97;;
17858;SDS011;35426;30.698;104.050;2023-02-15T08:56:46;62.87;;;35.07;;
17858;SDS011;35426;30.698;104.050;2023-02-15T08:59:23;61.80;;;35.60;;
17858;SDS011;35426;30.698;104.050;2023-02-15T09:02:03;66.90;;;36.20;;
17858;SDS011;35426;30.698;104.050;2023-02-15T09:04:53;62.93;;;35.63;;
17858;SDS011;35426;30.698;104.050;2023-02-15T09:07:37;57.97;;;34.03;;
17858;SDS011;35426;30.698;104.050;2023-02-15T09:10:13;59.00;;;35.37;;
17858;SDS011;35426;30.698;104.050;2023-02-15T09:12:51;59.63;;;34.80;;
17858;SDS011;35426;30.698;104.050;2023-02-15T09:15:28;59.57;;;35.07;;
17858;SDS011;35426;30.698;104.050;2023-02-15T09:18:08;61.70;;;36.07;;
17858;SDS011;35426;30.698;104.050;2023-02-15T09:20:47;63.23;;;38.10;;
17858;SDS011;35426;30.698;104.050;2023-02-15T09:23:30;67.10;;;37.73;;
17858;SDS011;35426;30.698;104.050;2023-02-15T09:26:10;68.37;;;38.93;;
17858;SDS011;35426;30.698;104.050;2023-02-15T09:29:04;75.27;;;38.50;;
17858;SDS011;35426;30.698;104.050;2023-02-15T09:31:44;68.37;;;38.80;;
17858;SDS011;35426;30.698;104.050;2023-02-15T09:34:23;75.10;;;39.77;;
17858;SDS011;35426;30.698;104.050;2023-02-15T09:37:04;73.27;;;39.57;;
17858;SDS011;35426;30.698;104.050;2023-02-15T09:39:48;71.27;;;40.10;;
17858;SDS011;35426;30.698;104.050;2023-02-15T09:42:44;73.43;;;40.60;;
17858;SDS011;35426;30.698;104.050;2023-02-15T09:45:41;79.10;;;40.77;;
17858;SDS011;35426;30.698;104.050;2023-02-15T09:48:36;77.27;;;43.10;;
17858;SDS011;35426;30.698;104.050;2023-02-15T09:51:22;77.57;;;41.00;;
17858;SDS011;35426;30.698;104.050;2023-02-15T09:54:21;74.37;;;43.07;;
17858;SDS011;35426;30.698;104.050;2023-02-15T09:57:08;83.73;;;43.10;;
17858;SDS011;35426;30.698;104.050;2023-02-15T10:00:02;80.00;;;43.33;;
17858;SDS011;35426;30.698;104.050;2023-02-15T10:02:58;85.47;;;44.53;;
17858;SDS011;35426;30.698;104.050;2023-02-15T10:06:04;84.93;;;43.87;;
17858;SDS011;35426;30.698;104.050;2023-02-15T10:09:19;77.73;;;43.43;;
17858;SDS011;35426;30.698;104.050;2023-02-15T10:12:41;79.40;;;43.60;;
17858;SDS011;35426;30.698;104.050;2023-02-15T10:15:31;80.40;;;41.83;;
17858;SDS011;35426;30.698;104.050;2023-02-15T10:18:34;82.23;;;43.17;;
17858;SDS011;35426;30.698;104.050;2023-02-15T10:21:30;80.30;;;42.60;;
17858;SDS011;35426;30.698;104.050;2023-02-15T10:24:21;75.57;;;41.97;;
17858;SDS011;35426;30.698;104.050;2023-02-15T10:27:18;70.80;;;41.03;;
17858;SDS011;35426;30.698;104.050;2023-02-15T10:30:06;79.70;;;41.43;;
17858;SDS011;35426;30.698;104.050;2023-02-15T10:32:48;86.63;;;44.50;;
17858;SDS011;35426;30.698;104.050;2023-02-15T10:35:35;85.77;;;45.33;;
17858;SDS011;35426;30.698;104.050;2023-02-15T10:38:22;93.20;;;47.53;;
17858;SDS011;35426;30.698;104.050;2023-02-15T10:41:07;98.70;;;48.73;;
17858;SDS011;35426;30.698;104.050;2023-02-15T10:44:00;96.73;;;52.00;;
17858;SDS011;35426;30.698;104.050;2023-02-15T10:46:55;102.97;;;53.17;;
17858;SDS011;35426;30.698;104.050;2023-02-15T10:49:49;104.63;;;54.47;;
17858;SDS011;35426;30.698;104.050;2023-02-15T10:52:42;104.47;;;58.00;;
17858;SDS011;35426;30.698;104.050;2023-02-15T10:55:31;109.97;;;57.80;;
17858;SDS011;35426;30.698;104.050;2023-02-15T10:58:26;117.30;;;59.00;;
17858;SDS011;35426;30.698;104.050;2023-02-15T11:01:18;115.13;;;59.63;;
17858;SDS011;35426;30.698;104.050;2023-02-15T11:04:08;116.37;;;60.23;;
17858;SDS011;35426;30.698;104.050;2023-02-15T11:07:20;117.43;;;60.77;;
17858;SDS011;35426;30.698;104.050;2023-02-15T11:10:00;119.53;;;59.97;;
17858;SDS011;35426;30.698;104.050;2023-02-15T11:12:49;112.37;;;59.67;;
17858;SDS011;35426;30.698;104.050;2023-02-15T11:15:39;118.27;;;61.60;;
17858;SDS011;35426;30.698;104.050;2023-02-15T11:18:23;126.70;;;63.17;;
17858;SDS011;35426;30.698;104.050;2023-02-15T11:21:13;114.63;;;60.40;;
17858;SDS011;35426;30.698;104.050;2023-02-15T11:23:55;121.43;;;62.67;;
17858;SDS011;35426;30.698;104.050;2023-02-15T11:26:39;116.07;;;59.23;;
17858;SDS011;35426;30.698;104.050;2023-02-15T11:29:21;111.87;;;57.67;;
17858;SDS011;35426;30.698;104.050;2023-02-15T11:32:01;104.70;;;58.40;;
17858;SDS011;35426;30.698;104.050;2023-02-15T11:34:50;93.30;;;51.30;;
17858;SDS011;35426;30.698;104.050;2023-02-15T11:37:35;95.23;;;50.07;;
17858;SDS011;35426;30.698;104.050;2023-02-15T11:40:19;98.77;;;52.80;;
17858;SDS011;35426;30.698;104.050;2023-02-15T11:43:00;105.70;;;55.87;;
17858;SDS011;35426;30.698;104.050;2023-02-15T11:45:38;107.00;;;54.80;;
17858;SDS011;35426;30.698;104.050;2023-02-15T11:48:22;109.30;;;57.17;;
17858;SDS011;35426;30.698;104.050;2023-02-15T11:51:09;103.90;;;56.37;;
17858;SDS011;35426;30.698;104.050;2023-02-15T11:53:54;109.33;;;57.40;;
17858;SDS011;35426;30.698;104.050;2023-02-15T11:56:34;109.43;;;57.17;;
17858;SDS011;35426;30.698;104.050;2023-02-15T11:59:27;105.90;;;55.77;;
17858;SDS011;35426;30.698;104.050;2023-02-15T12:02:15;116.77;;;58.13;;
17858;SDS011;35426;30.698;104.050;2023-02-15T12:04:58;111.53;;;58.83;;
17858;SDS011;35426;30.698;104.050;2023-02-15T12:07:41;116.63;;;58.20;;
17858;SDS011;35426;30.698;104.050;2023-02-15T12:10:33;108.77;;;56.23;;
17858;SDS011;35426;30.698;104.050;2023-02-15T12:13:19;116.03;;;59.00;;
17858;SDS011;35426;30.698;104.050;2023-02-15T12:16:18;117.07;;;58.80;;
17858;SDS011;35426;30.698;104.050;2023-02-15T12:19:05;119.13;;;59.33;;
17858;SDS011;35426;30.698;104.050;2023-02-15T12:21:49;110.27;;;57.70;;
17858;SDS011;35426;30.698;104.050;2023-02-15T12:24:28;114.83;;;58.40;;
17858;SDS011;35426;30.698;104.050;2023-02-15T12:27:16;109.63;;;58.10;;
17858;SDS011;35426;30.698;104.050;2023-02-15T12:29:56;109.63;;;58.03;;
17858;SDS011;35426;30.698;104.050;2023-02-15T12:32:47;108.20;;;58.00;;
17858;SDS011;35426;30.698;104.050;2023-02-15T12:35:28;110.20;;;57.33;;
17858;SDS011;35426;30.698;104.050;2023-02-15T12:38:21;106.03;;;55.03;;
17858;SDS011;35426;30.698;104.050;2023-02-15T12:41:00;118.13;;;57.93;;
17858;SDS011;35426;30.698;104.050;2023-02-15T12:44:09;124.00;;;58.30;;
17858;SDS011;35426;30.698;104.050;2023-02-15T12:46:58;115.73;;;57.43;;
17858;SDS011;35426;30.698;104.050;2023-02-15T12:49:41;111.97;;;57.67;;
17858;SDS011;35426;30.698;104.050;2023-02-15T12:52:40;110.23;;;56.70;;
17858;SDS011;35426;30.698;104.050;2023-02-15T12:55:24;125.97;;;59.13;;
17858;SDS011;35426;30.698;104.050;2023-02-15T12:58:13;111.93;;;57.47;;
17858;SDS011;35426;30.698;104.050;2023-02-15T13:01:08;116.33;;;58.80;;
17858;SDS011;35426;30.698;104.050;2023-02-15T13:03:58;111.53;;;58.27;;
17858;SDS011;35426;30.698;104.050;2023-02-15T13:07:01;115.03;;;58.40;;
17858;SDS011;35426;30.698;104.050;2023-02-15T13:09:38;123.27;;;58.83;;
17858;SDS011;35426;30.698;104.050;2023-02-15T13:12:18;110.93;;;56.13;;
17858;SDS011;35426;30.698;104.050;2023-02-15T13:15:00;119.60;;;59.77;;
17858;SDS011;35426;30.698;104.050;2023-02-15T13:18:10;120.53;;;58.00;;
17858;SDS011;35426;30.698;104.050;2023-02-15T13:20:56;112.87;;;56.70;;
17858;SDS011;35426;30.698;104.050;2023-02-15T13:23:35;113.63;;;56.27;;
17858;SDS011;35426;30.698;104.050;2023-02-15T13:26:15;118.67;;;58.07;;
17858;SDS011;35426;30.698;104.050;2023-02-15T13:28:55;108.83;;;57.23;;
17858;SDS011;35426;30.698;104.050;2023-02-15T13:31:35;121.00;;;60.27;;
17858;SDS011;35426;30.698;104.050;2023-02-15T13:34:24;109.90;;;57.50;;
17858;SDS011;35426;30.698;104.050;2023-02-15T13:37:08;107.67;;;55.87;;
17858;SDS011;35426;30.698;104.050;2023-02-15T13:39:55;108.07;;;56.83;;
17858;SDS011;35426;30.698;104.050;2023-02-15T13:42:38;120.10;;;57.27;;
17858;SDS011;35426;30.698;104.050;2023-02-15T13:45:28;111.43;;;56.03;;
17858;SDS011;35426;30.698;104.050;2023-02-15T13:48:16;100.93;;;56.13;;
17858;SDS011;35426;30.698;104.050;2023-02-15T13:51:25;106.20;;;55.80;;
17858;SDS011;35426;30.698;104.050;2023-02-15T13:54:21;102.43;;;54.70;;
17858;SDS011;35426;30.698;104.050;2023-02-15T13:57:19;101.30;;;54.17;;
17858;SDS011;35426;30.698;104.050;2023-02-15T14:00:18;111.43;;;55.00;;
17858;SDS011;35426;30.698;104.050;2023-02-15T14:06:49;103.03;;;54.77;;
17858;SDS011;35426;30.698;104.050;2023-02-15T14:10:02;111.83;;;55.00;;
17858;SDS011;35426;30.698;104.050;2023-02-15T14:13:05;106.63;;;56.00;;
17858;SDS011;35426;30.698;104.050;2023-02-15T14:15:57;100.73;;;55.13;;
17858;SDS011;35426;30.698;104.050;2023-02-15T14:18:39;107.37;;;54.77;;
17858;SDS011;35426;30.698;104.050;2023-02-15T14:21:26;106.90;;;55.77;;
17858;SDS011;35426;30.698;104.050;2023-02-15T14:24:13;104.77;;;55.50;;
17858;SDS011;35426;30.698;104.050;2023-02-15T14:27:02;104.43;;;55.40;;
17858;SDS011;35426;30.698;104.050;2023-02-15T14:29:56;101.80;;;54.80;;
17858;SDS011;35426;30.698;104.050;2023-02-15T14:32:48;105.43;;;55.10;;
17858;SDS011;35426;30.698;104.050;2023-02-15T14:35:30;114.30;;;57.77;;
17858;SDS011;35426;30.698;104.050;2023-02-15T14:38:11;120.77;;;57.47;;
17858;SDS011;35426;30.698;104.050;2023-02-15T14:40:59;107.53;;;57.10;;
17858;SDS011;35426;30.698;104.050;2023-02-15T14:43:43;108.13;;;56.17;;
17858;SDS011;35426;30.698;104.050;2023-02-15T14:46:30;108.10;;;56.00;;
17858;SDS011;35426;30.698;104.050;2023-02-15T14:49:24;106.90;;;55.47;;
17858;SDS011;35426;30.698;104.050;2023-02-15T14:52:10;113.23;;;56.87;;
17858;SDS011;35426;30.698;104.050;2023-02-15T14:54:57;104.90;;;54.93;;
17858;SDS011;35426;30.698;104.050;2023-02-15T14:57:48;113.13;;;56.27;;
17858;SDS011;35426;30.698;104.050;2023-02-15T15:00:37;104.67;;;54.60;;
17858;SDS011;35426;30.698;104.050;2023-02-15T15:03:20;101.60;;;55.23;;
17858;SDS011;35426;30.698;104.050;2023-02-15T15:06:01;105.33;;;54.77;;
17858;SDS011;35426;30.698;104.050;2023-02-15T15:08:40;103.53;;;54.20;;
17858;SDS011;35426;30.698;104.050;2023-02-15T15:23:40;106.20;;;55.93;;
17858;SDS011;35426;30.698;104.050;2023-02-15T15:32:26;111.57;;;54.30;;
17858;SDS011;35426;30.698;104.050;2023-02-15T15:35:13;103.57;;;52.53;;
17858;SDS011;35426;30.698;104.050;2023-02-15T15:38:08;104.07;;;52.73;;
17858;SDS011;35426;30.698;104.050;2023-02-15T15:41:05;106.00;;;53.23;;
17858;SDS011;35426;30.698;104.050;2023-02-15T15:43:58;107.77;;;54.17;;
17858;SDS011;35426;30.698;104.050;2023-02-15T15:50:38;98.53;;;51.53;;
17858;SDS011;35426;30.698;104.050;2023-02-15T15:53:18;104.27;;;55.13;;
17858;SDS011;35426;30.698;104.050;2023-02-15T15:56:08;98.77;;;52.90;;
17858;SDS011;35426;30.698;104.050;2023-02-15T15:58:51;101.57;;;53.57;;
17858;SDS011;35426;30.698;104.050;2023-02-15T16:01:34;100.00;;;53.83;;
17858;SDS011;35426;30.698;104.050;2023-02-15T16:04:23;97.00;;;53.43;;
17858;SDS011;35426;30.698;104.050;2023-02-15T16:10:20;99.53;;;53.13;;
17858;SDS011;35426;30.698;104.050;2023-02-15T16:13:05;97.60;;;52.30;;
17858;SDS011;35426;30.698;104.050;2023-02-15T16:15:56;108.53;;;52.70;;